sensor_id;sensor_type;location;lat;lon;timestamp;temperature;humidity
32522;DHT22;18963;51.504;5.316;2022-12-05T00:01:34;2.70;99.90
32522;DHT22;18963;51.504;5.316;2022-12-05T00:04:04;2.70;99.90
32522;DHT22;18963;51.504;5.316;2022-12-05T00:06:30;2.70;99.90
32522;DHT22;18963;51.504;5.316;2022-12-05T00:08:56;2.70;99.90
32522;DHT22;18963;51.504;5.316;2022-12-05T00:11:23;2.70;99.90
32522;DHT22;18963;51.504;5.316;2022-12-05T00:13:49;2.70;99.90
32522;DHT22;18963;51.504;5.316;2022-12-05T00:16:20;2.70;99.90
32522;DHT22;18963;51.504;5.316;2022-12-05T00:18:45;2.70;99.90
32522;DHT22;18963;51.504;5.316;2022-12-05T00:21:12;2.80;99.90
32522;DHT22;18963;51.504;5.316;2022-12-05T00:23:38;2.80;99.90
32522;DHT22;18963;51.504;5.316;2022-12-05T00:26:03;2.80;99.90
32522;DHT22;18963;51.504;5.316;2022-12-05T00:28:30;2.80;99.90
32522;DHT22;18963;51.504;5.316;2022-12-05T00:30:56;2.80;99.90
32522;DHT22;18963;51.504;5.316;2022-12-05T00:33:21;2.80;99.90
32522;DHT22;18963;51.504;5.316;2022-12-05T00:35:47;2.80;99.90
32522;DHT22;18963;51.504;5.316;2022-12-05T00:38:12;2.80;99.90
32522;DHT22;18963;51.504;5.316;2022-12-05T00:40:38;2.80;99.90
32522;DHT22;18963;51.504;5.316;2022-12-05T00:43:03;2.80;99.90
32522;DHT22;18963;51.504;5.316;2022-12-05T00:45:29;2.70;99.90
32522;DHT22;18963;51.504;5.316;2022-12-05T00:47:54;2.70;99.90
32522;DHT22;18963;51.504;5.316;2022-12-05T00:50:19;2.70;99.90
32522;DHT22;18963;51.504;5.316;2022-12-05T00:52:45;2.80;99.90
32522;DHT22;18963;51.504;5.316;2022-12-05T00:55:10;2.70;99.90
32522;DHT22;18963;51.504;5.316;2022-12-05T00:57:36;2.80;99.90
32522;DHT22;18963;51.504;5.316;2022-12-05T01:00:03;2.80;99.90
32522;DHT22;18963;51.504;5.316;2022-12-05T01:02:28;2.80;99.90
32522;DHT22;18963;51.504;5.316;2022-12-05T01:04:54;2.80;99.90
32522;DHT22;18963;51.504;5.316;2022-12-05T01:07:19;2.80;99.90
32522;DHT22;18963;51.504;5.316;2022-12-05T01:09:45;2.80;99.90
32522;DHT22;18963;51.504;5.316;2022-12-05T01:12:10;2.80;99.90
32522;DHT22;18963;51.504;5.316;2022-12-05T01:14:36;2.80;99.90
32522;DHT22;18963;51.504;5.316;2022-12-05T01:17:01;2.80;99.90
32522;DHT22;18963;51.504;5.316;2022-12-05T01:19:28;2.80;99.90
32522;DHT22;18963;51.504;5.316;2022-12-05T01:21:54;2.80;99.90
32522;DHT22;18963;51.504;5.316;2022-12-05T01:24:21;2.80;99.90
32522;DHT22;18963;51.504;5.316;2022-12-05T01:26:47;2.90;99.90
32522;DHT22;18963;51.504;5.316;2022-12-05T01:29:13;2.90;99.90
32522;DHT22;18963;51.504;5.316;2022-12-05T01:31:39;2.90;99.90
32522;DHT22;18963;51.504;5.316;2022-12-05T01:34:05;2.90;99.90
32522;DHT22;18963;51.504;5.316;2022-12-05T01:36:32;2.90;99.90
32522;DHT22;18963;51.504;5.316;2022-12-05T01:38:57;2.80;99.90
32522;DHT22;18963;51.504;5.316;2022-12-05T01:41:24;2.90;99.90
32522;DHT22;18963;51.504;5.316;2022-12-05T01:44:01;2.90;99.90
32522;DHT22;18963;51.504;5.316;2022-12-05T01:46:27;2.90;99.90
32522;DHT22;18963;51.504;5.316;2022-12-05T01:48:54;2.90;99.90
32522;DHT22;18963;51.504;5.316;2022-12-05T01:51:21;2.90;99.90
32522;DHT22;18963;51.504;5.316;2022-12-05T01:53:47;3.00;99.90
32522;DHT22;18963;51.504;5.316;2022-12-05T01:56:12;3.00;99.90
32522;DHT22;18963;51.504;5.316;2022-12-05T01:58:38;3.00;99.90
32522;DHT22;18963;51.504;5.316;2022-12-05T02:01:05;3.00;99.90
32522;DHT22;18963;51.504;5.316;2022-12-05T02:03:31;3.00;99.90
32522;DHT22;18963;51.504;5.316;2022-12-05T02:05:56;2.90;99.90
32522;DHT22;18963;51.504;5.316;2022-12-05T02:08:23;2.90;99.90
32522;DHT22;18963;51.504;5.316;2022-12-05T02:10:49;3.00;99.90
32522;DHT22;18963;51.504;5.316;2022-12-05T02:18:41;3.00;99.90
32522;DHT22;18963;51.504;5.316;2022-12-05T02:21:59;3.00;99.90
32522;DHT22;18963;51.504;5.316;2022-12-05T02:24:18;3.00;99.90
32522;DHT22;18963;51.504;5.316;2022-12-05T02:29:40;3.00;99.90
32522;DHT22;18963;51.504;5.316;2022-12-05T02:32:09;3.00;99.90
32522;DHT22;18963;51.504;5.316;2022-12-05T02:37:16;3.10;99.90
32522;DHT22;18963;51.504;5.316;2022-12-05T02:39:53;3.00;99.90
32522;DHT22;18963;51.504;5.316;2022-12-05T02:42:23;3.00;99.90
32522;DHT22;18963;51.504;5.316;2022-12-05T02:44:56;3.00;99.90
32522;DHT22;18963;51.504;5.316;2022-12-05T02:47:25;3.00;99.90
32522;DHT22;18963;51.504;5.316;2022-12-05T02:49:51;3.00;99.90
32522;DHT22;18963;51.504;5.316;2022-12-05T02:52:18;3.00;99.90
32522;DHT22;18963;51.504;5.316;2022-12-05T02:54:45;3.00;99.90
32522;DHT22;18963;51.504;5.316;2022-12-05T02:57:11;3.00;99.90
32522;DHT22;18963;51.504;5.316;2022-12-05T02:59:38;3.00;99.90
32522;DHT22;18963;51.504;5.316;2022-12-05T03:02:03;3.00;99.90
32522;DHT22;18963;51.504;5.316;2022-12-05T03:04:29;3.10;99.90
32522;DHT22;18963;51.504;5.316;2022-12-05T03:07:02;3.10;99.90
32522;DHT22;18963;51.504;5.316;2022-12-05T03:12:06;3.10;99.90
32522;DHT22;18963;51.504;5.316;2022-12-05T03:14:35;3.00;99.90
32522;DHT22;18963;51.504;5.316;2022-12-05T03:17:02;3.00;99.90
32522;DHT22;18963;51.504;5.316;2022-12-05T03:19:31;3.00;99.90
32522;DHT22;18963;51.504;5.316;2022-12-05T03:22:00;3.10;99.90
32522;DHT22;18963;51.504;5.316;2022-12-05T03:24:26;3.10;99.90
32522;DHT22;18963;51.504;5.316;2022-12-05T03:26:57;3.00;99.90
32522;DHT22;18963;51.504;5.316;2022-12-05T03:32:02;3.10;99.90
32522;DHT22;18963;51.504;5.316;2022-12-05T03:34:49;3.00;99.90
32522;DHT22;18963;51.504;5.316;2022-12-05T03:37:26;3.00;99.90
32522;DHT22;18963;51.504;5.316;2022-12-05T03:39:58;3.00;99.90
32522;DHT22;18963;51.504;5.316;2022-12-05T03:42:29;3.10;99.90
32522;DHT22;18963;51.504;5.316;2022-12-05T03:44:59;3.10;99.90
32522;DHT22;18963;51.504;5.316;2022-12-05T03:49:51;3.00;99.90
32522;DHT22;18963;51.504;5.316;2022-12-05T03:52:24;3.00;99.90
32522;DHT22;18963;51.504;5.316;2022-12-05T03:54:52;3.00;99.90
32522;DHT22;18963;51.504;5.316;2022-12-05T03:57:20;3.00;99.90
32522;DHT22;18963;51.504;5.316;2022-12-05T03:59:51;3.10;99.90
32522;DHT22;18963;51.504;5.316;2022-12-05T04:02:37;3.00;99.90
32522;DHT22;18963;51.504;5.316;2022-12-05T04:05:20;3.00;99.90
32522;DHT22;18963;51.504;5.316;2022-12-05T04:07:51;3.10;99.90
32522;DHT22;18963;51.504;5.316;2022-12-05T04:10:19;3.10;99.90
32522;DHT22;18963;51.504;5.316;2022-12-05T04:12:46;3.10;99.90
32522;DHT22;18963;51.504;5.316;2022-12-05T04:15:14;3.10;99.90
32522;DHT22;18963;51.504;5.316;2022-12-05T04:17:52;3.10;99.90
32522;DHT22;18963;51.504;5.316;2022-12-05T04:20:22;3.10;99.90
32522;DHT22;18963;51.504;5.316;2022-12-05T04:23:09;3.10;99.90
32522;DHT22;18963;51.504;5.316;2022-12-05T04:25:41;3.10;99.90
32522;DHT22;18963;51.504;5.316;2022-12-05T04:28:13;3.10;99.90
32522;DHT22;18963;51.504;5.316;2022-12-05T04:33:32;3.10;99.90
32522;DHT22;18963;51.504;5.316;2022-12-05T04:38:39;3.10;99.90
32522;DHT22;18963;51.504;5.316;2022-12-05T04:41:06;3.10;99.90
32522;DHT22;18963;51.504;5.316;2022-12-05T04:43:37;3.10;99.90
32522;DHT22;18963;51.504;5.316;2022-12-05T04:46:03;3.10;99.90
32522;DHT22;18963;51.504;5.316;2022-12-05T04:48:31;3.10;99.90
32522;DHT22;18963;51.504;5.316;2022-12-05T04:50:57;3.10;99.90
32522;DHT22;18963;51.504;5.316;2022-12-05T04:53:23;3.20;99.90
32522;DHT22;18963;51.504;5.316;2022-12-05T04:55:51;3.10;99.90
32522;DHT22;18963;51.504;5.316;2022-12-05T04:58:22;3.10;99.90
32522;DHT22;18963;51.504;5.316;2022-12-05T05:05:48;3.10;99.90
32522;DHT22;18963;51.504;5.316;2022-12-05T05:08:19;3.10;99.90
32522;DHT22;18963;51.504;5.316;2022-12-05T05:10:49;3.10;99.90
32522;DHT22;18963;51.504;5.316;2022-12-05T05:13:16;3.20;99.90
32522;DHT22;18963;51.504;5.316;2022-12-05T05:15:42;3.20;99.90
32522;DHT22;18963;51.504;5.316;2022-12-05T05:18:08;3.20;99.90
32522;DHT22;18963;51.504;5.316;2022-12-05T05:20:34;3.20;99.90
32522;DHT22;18963;51.504;5.316;2022-12-05T05:22:59;3.20;99.90
32522;DHT22;18963;51.504;5.316;2022-12-05T05:25:25;3.20;99.90
32522;DHT22;18963;51.504;5.316;2022-12-05T05:27:51;3.20;99.90
32522;DHT22;18963;51.504;5.316;2022-12-05T05:30:18;3.20;99.90
32522;DHT22;18963;51.504;5.316;2022-12-05T05:32:43;3.20;99.90
32522;DHT22;18963;51.504;5.316;2022-12-05T05:35:09;3.30;99.90
32522;DHT22;18963;51.504;5.316;2022-12-05T05:37:36;3.30;99.90
32522;DHT22;18963;51.504;5.316;2022-12-05T05:40:01;3.30;99.90
32522;DHT22;18963;51.504;5.316;2022-12-05T05:42:27;3.30;99.90
32522;DHT22;18963;51.504;5.316;2022-12-05T05:44:52;3.30;99.90
32522;DHT22;18963;51.504;5.316;2022-12-05T05:47:18;3.20;99.90
32522;DHT22;18963;51.504;5.316;2022-12-05T05:49:43;3.30;99.90
32522;DHT22;18963;51.504;5.316;2022-12-05T05:52:09;3.30;99.90
32522;DHT22;18963;51.504;5.316;2022-12-05T05:54:34;3.30;99.90
32522;DHT22;18963;51.504;5.316;2022-12-05T05:57:00;3.30;99.90
32522;DHT22;18963;51.504;5.316;2022-12-05T05:59:25;3.30;99.90
32522;DHT22;18963;51.504;5.316;2022-12-05T06:01:50;3.30;99.90
32522;DHT22;18963;51.504;5.316;2022-12-05T06:04:16;3.30;99.90
32522;DHT22;18963;51.504;5.316;2022-12-05T06:06:41;3.30;99.90
32522;DHT22;18963;51.504;5.316;2022-12-05T06:09:07;3.30;99.90
32522;DHT22;18963;51.504;5.316;2022-12-05T06:11:32;3.30;99.90
32522;DHT22;18963;51.504;5.316;2022-12-05T06:13:58;3.30;99.90
32522;DHT22;18963;51.504;5.316;2022-12-05T06:16:27;3.30;99.90
32522;DHT22;18963;51.504;5.316;2022-12-05T06:18:53;3.30;99.90
32522;DHT22;18963;51.504;5.316;2022-12-05T06:21:19;3.30;99.90
32522;DHT22;18963;51.504;5.316;2022-12-05T06:23:44;3.30;99.90
32522;DHT22;18963;51.504;5.316;2022-12-05T06:26:11;3.30;99.90
32522;DHT22;18963;51.504;5.316;2022-12-05T06:28:37;3.40;99.90
32522;DHT22;18963;51.504;5.316;2022-12-05T06:31:20;3.40;99.90
32522;DHT22;18963;51.504;5.316;2022-12-05T06:33:46;3.30;99.90
32522;DHT22;18963;51.504;5.316;2022-12-05T06:36:13;3.40;99.90
32522;DHT22;18963;51.504;5.316;2022-12-05T06:38:39;3.40;99.90
32522;DHT22;18963;51.504;5.316;2022-12-05T06:41:05;3.40;99.90
32522;DHT22;18963;51.504;5.316;2022-12-05T06:43:31;3.40;99.90
32522;DHT22;18963;51.504;5.316;2022-12-05T06:45:56;3.40;99.90
32522;DHT22;18963;51.504;5.316;2022-12-05T06:48:22;3.40;99.90
32522;DHT22;18963;51.504;5.316;2022-12-05T06:50:51;3.40;99.90
32522;DHT22;18963;51.504;5.316;2022-12-05T06:53:17;3.40;99.90
32522;DHT22;18963;51.504;5.316;2022-12-05T06:55:43;3.40;99.90
32522;DHT22;18963;51.504;5.316;2022-12-05T06:58:08;3.50;99.90
32522;DHT22;18963;51.504;5.316;2022-12-05T07:00:34;3.50;99.90
32522;DHT22;18963;51.504;5.316;2022-12-05T07:03:18;3.50;99.90
32522;DHT22;18963;51.504;5.316;2022-12-05T07:05:43;3.40;99.90
32522;DHT22;18963;51.504;5.316;2022-12-05T07:08:09;3.50;99.90
32522;DHT22;18963;51.504;5.316;2022-12-05T07:10:34;3.40;99.90
32522;DHT22;18963;51.504;5.316;2022-12-05T07:13:00;3.40;99.90
32522;DHT22;18963;51.504;5.316;2022-12-05T07:15:25;3.50;99.90
32522;DHT22;18963;51.504;5.316;2022-12-05T07:17:59;3.50;99.90
32522;DHT22;18963;51.504;5.316;2022-12-05T07:20:25;3.40;99.90
32522;DHT22;18963;51.504;5.316;2022-12-05T07:22:50;3.40;99.90
32522;DHT22;18963;51.504;5.316;2022-12-05T07:25:16;3.50;99.90
32522;DHT22;18963;51.504;5.316;2022-12-05T07:27:41;3.50;99.90
32522;DHT22;18963;51.504;5.316;2022-12-05T07:30:07;3.50;99.90
32522;DHT22;18963;51.504;5.316;2022-12-05T07:32:33;3.50;99.90
32522;DHT22;18963;51.504;5.316;2022-12-05T07:34:58;3.50;99.90
32522;DHT22;18963;51.504;5.316;2022-12-05T07:37:24;3.50;99.90
32522;DHT22;18963;51.504;5.316;2022-12-05T07:39:50;3.50;99.90
32522;DHT22;18963;51.504;5.316;2022-12-05T07:42:16;3.50;99.90
32522;DHT22;18963;51.504;5.316;2022-12-05T07:44:41;3.50;99.90
32522;DHT22;18963;51.504;5.316;2022-12-05T07:47:07;3.50;99.90
32522;DHT22;18963;51.504;5.316;2022-12-05T07:49:32;3.50;99.90
32522;DHT22;18963;51.504;5.316;2022-12-05T07:51:57;3.50;99.90
32522;DHT22;18963;51.504;5.316;2022-12-05T07:54:23;3.50;99.90
32522;DHT22;18963;51.504;5.316;2022-12-05T07:56:48;3.50;99.90
32522;DHT22;18963;51.504;5.316;2022-12-05T07:59:14;3.50;99.90
32522;DHT22;18963;51.504;5.316;2022-12-05T08:01:39;3.50;99.90
32522;DHT22;18963;51.504;5.316;2022-12-05T08:04:05;3.60;99.90
32522;DHT22;18963;51.504;5.316;2022-12-05T08:06:32;3.50;99.90
32522;DHT22;18963;51.504;5.316;2022-12-05T08:08:57;3.50;99.90
32522;DHT22;18963;51.504;5.316;2022-12-05T08:11:24;3.50;99.90
32522;DHT22;18963;51.504;5.316;2022-12-05T08:13:51;3.50;99.90
32522;DHT22;18963;51.504;5.316;2022-12-05T08:16:18;3.60;99.90
32522;DHT22;18963;51.504;5.316;2022-12-05T08:18:44;3.60;99.90
32522;DHT22;18963;51.504;5.316;2022-12-05T08:21:11;3.60;99.90
32522;DHT22;18963;51.504;5.316;2022-12-05T08:23:37;3.60;99.90
32522;DHT22;18963;51.504;5.316;2022-12-05T08:26:07;3.60;99.90
32522;DHT22;18963;51.504;5.316;2022-12-05T08:28:33;3.60;99.90
32522;DHT22;18963;51.504;5.316;2022-12-05T08:31:06;3.60;99.90
32522;DHT22;18963;51.504;5.316;2022-12-05T08:33:32;3.60;99.90
32522;DHT22;18963;51.504;5.316;2022-12-05T08:36:01;3.60;99.90
32522;DHT22;18963;51.504;5.316;2022-12-05T08:38:27;3.60;99.90
32522;DHT22;18963;51.504;5.316;2022-12-05T08:40:53;3.60;99.90
32522;DHT22;18963;51.504;5.316;2022-12-05T08:43:18;3.70;99.90
32522;DHT22;18963;51.504;5.316;2022-12-05T08:45:48;3.70;99.90
32522;DHT22;18963;51.504;5.316;2022-12-05T08:48:13;3.70;99.90
32522;DHT22;18963;51.504;5.316;2022-12-05T08:50:39;3.70;99.90
32522;DHT22;18963;51.504;5.316;2022-12-05T08:53:04;3.70;99.90
32522;DHT22;18963;51.504;5.316;2022-12-05T08:55:30;3.70;99.90
32522;DHT22;18963;51.504;5.316;2022-12-05T08:57:58;3.80;99.90
32522;DHT22;18963;51.504;5.316;2022-12-05T09:00:23;3.80;99.90
32522;DHT22;18963;51.504;5.316;2022-12-05T09:02:49;3.80;99.90
32522;DHT22;18963;51.504;5.316;2022-12-05T09:05:16;3.80;99.90
32522;DHT22;18963;51.504;5.316;2022-12-05T09:07:41;3.80;99.90
32522;DHT22;18963;51.504;5.316;2022-12-05T09:10:07;3.80;99.90
32522;DHT22;18963;51.504;5.316;2022-12-05T09:12:34;3.80;99.90
32522;DHT22;18963;51.504;5.316;2022-12-05T09:14:59;3.80;99.90
32522;DHT22;18963;51.504;5.316;2022-12-05T09:17:25;3.80;99.90
32522;DHT22;18963;51.504;5.316;2022-12-05T09:19:51;3.90;99.90
32522;DHT22;18963;51.504;5.316;2022-12-05T09:22:17;3.90;99.90
32522;DHT22;18963;51.504;5.316;2022-12-05T09:24:42;3.90;99.90
32522;DHT22;18963;51.504;5.316;2022-12-05T09:27:07;3.90;99.90
32522;DHT22;18963;51.504;5.316;2022-12-05T09:29:33;3.90;99.90
32522;DHT22;18963;51.504;5.316;2022-12-05T09:31:58;3.90;99.90
32522;DHT22;18963;51.504;5.316;2022-12-05T09:34:24;3.90;99.90
32522;DHT22;18963;51.504;5.316;2022-12-05T09:36:50;3.90;99.90
32522;DHT22;18963;51.504;5.316;2022-12-05T09:39:16;3.90;99.90
32522;DHT22;18963;51.504;5.316;2022-12-05T09:47:02;3.90;99.90
32522;DHT22;18963;51.504;5.316;2022-12-05T09:49:28;4.00;99.90
32522;DHT22;18963;51.504;5.316;2022-12-05T09:51:55;4.00;99.90
32522;DHT22;18963;51.504;5.316;2022-12-05T09:54:21;4.00;99.90
32522;DHT22;18963;51.504;5.316;2022-12-05T09:56:48;4.00;99.90
32522;DHT22;18963;51.504;5.316;2022-12-05T09:59:14;4.00;99.90
32522;DHT22;18963;51.504;5.316;2022-12-05T10:01:46;4.00;99.90
32522;DHT22;18963;51.504;5.316;2022-12-05T10:07:04;4.10;99.90
32522;DHT22;18963;51.504;5.316;2022-12-05T10:12:05;4.10;99.90
32522;DHT22;18963;51.504;5.316;2022-12-05T10:17:27;4.00;99.90
32522;DHT22;18963;51.504;5.316;2022-12-05T10:19:55;4.00;99.90
32522;DHT22;18963;51.504;5.316;2022-12-05T10:22:24;4.00;99.90
32522;DHT22;18963;51.504;5.316;2022-12-05T10:24:58;4.00;99.90
32522;DHT22;18963;51.504;5.316;2022-12-05T10:27:32;4.10;99.90
32522;DHT22;18963;51.504;5.316;2022-12-05T10:32:34;4.00;99.90
32522;DHT22;18963;51.504;5.316;2022-12-05T10:37:39;4.10;99.90
32522;DHT22;18963;51.504;5.316;2022-12-05T10:40:10;4.10;99.90
32522;DHT22;18963;51.504;5.316;2022-12-05T10:42:35;4.10;99.90
32522;DHT22;18963;51.504;5.316;2022-12-05T10:45:02;4.10;99.90
32522;DHT22;18963;51.504;5.316;2022-12-05T10:47:29;4.10;99.90
32522;DHT22;18963;51.504;5.316;2022-12-05T10:49:55;4.20;99.90
32522;DHT22;18963;51.504;5.316;2022-12-05T10:52:22;4.20;99.90
32522;DHT22;18963;51.504;5.316;2022-12-05T10:54:50;4.20;99.90
32522;DHT22;18963;51.504;5.316;2022-12-05T10:57:20;4.20;99.90
32522;DHT22;18963;51.504;5.316;2022-12-05T10:59:46;4.10;99.90
32522;DHT22;18963;51.504;5.316;2022-12-05T11:02:28;4.20;99.90
32522;DHT22;18963;51.504;5.316;2022-12-05T11:04:55;4.20;99.90
32522;DHT22;18963;51.504;5.316;2022-12-05T11:09:49;4.20;99.90
32522;DHT22;18963;51.504;5.316;2022-12-05T11:12:58;4.10;99.90
32522;DHT22;18963;51.504;5.316;2022-12-05T11:17:31;4.10;99.90
32522;DHT22;18963;51.504;5.316;2022-12-05T11:19:56;4.10;99.90
32522;DHT22;18963;51.504;5.316;2022-12-05T11:22:32;4.10;99.90
32522;DHT22;18963;51.504;5.316;2022-12-05T11:24:58;4.10;99.90
32522;DHT22;18963;51.504;5.316;2022-12-05T11:27:26;4.20;99.90
32522;DHT22;18963;51.504;5.316;2022-12-05T11:30:03;4.20;99.90
32522;DHT22;18963;51.504;5.316;2022-12-05T11:32:38;4.20;99.90
32522;DHT22;18963;51.504;5.316;2022-12-05T11:35:06;4.30;99.90
32522;DHT22;18963;51.504;5.316;2022-12-05T11:43:10;4.30;99.90
32522;DHT22;18963;51.504;5.316;2022-12-05T11:51:05;4.30;99.90
32522;DHT22;18963;51.504;5.316;2022-12-05T11:53:37;4.30;99.90
32522;DHT22;18963;51.504;5.316;2022-12-05T11:58:43;4.40;99.90
32522;DHT22;18963;51.504;5.316;2022-12-05T12:14:11;4.40;99.90
32522;DHT22;18963;51.504;5.316;2022-12-05T12:16:42;4.40;99.90
32522;DHT22;18963;51.504;5.316;2022-12-05T12:19:19;4.40;99.90
32522;DHT22;18963;51.504;5.316;2022-12-05T12:29:41;4.30;99.90
32522;DHT22;18963;51.504;5.316;2022-12-05T12:32:20;4.30;99.90
32522;DHT22;18963;51.504;5.316;2022-12-05T12:40:03;4.40;99.90
32522;DHT22;18963;51.504;5.316;2022-12-05T12:50:36;4.40;99.90
32522;DHT22;18963;51.504;5.316;2022-12-05T12:58:34;4.40;99.90
32522;DHT22;18963;51.504;5.316;2022-12-05T13:01:11;4.40;99.90
32522;DHT22;18963;51.504;5.316;2022-12-05T13:03:57;4.40;99.90
32522;DHT22;18963;51.504;5.316;2022-12-05T13:06:28;4.40;99.90
32522;DHT22;18963;51.504;5.316;2022-12-05T13:08:59;4.40;99.90
32522;DHT22;18963;51.504;5.316;2022-12-05T13:11:26;4.40;99.90
32522;DHT22;18963;51.504;5.316;2022-12-05T13:13:54;4.40;99.90
32522;DHT22;18963;51.504;5.316;2022-12-05T13:16:24;4.40;99.90
32522;DHT22;18963;51.504;5.316;2022-12-05T13:18:50;4.30;99.90
32522;DHT22;18963;51.504;5.316;2022-12-05T13:21:15;4.30;99.90
32522;DHT22;18963;51.504;5.316;2022-12-05T13:23:44;4.30;99.90
32522;DHT22;18963;51.504;5.316;2022-12-05T13:26:11;4.30;99.90
32522;DHT22;18963;51.504;5.316;2022-12-05T13:28:38;4.30;99.90
32522;DHT22;18963;51.504;5.316;2022-12-05T13:31:08;4.30;99.90
32522;DHT22;18963;51.504;5.316;2022-12-05T13:36:04;4.30;99.90
32522;DHT22;18963;51.504;5.316;2022-12-05T13:38:48;4.30;99.90
32522;DHT22;18963;51.504;5.316;2022-12-05T13:41:41;4.30;99.90
32522;DHT22;18963;51.504;5.316;2022-12-05T13:44:28;4.30;99.90
32522;DHT22;18963;51.504;5.316;2022-12-05T13:46:55;4.30;99.90
32522;DHT22;18963;51.504;5.316;2022-12-05T13:49:40;4.30;99.90
32522;DHT22;18963;51.504;5.316;2022-12-05T13:52:10;4.30;99.90
32522;DHT22;18963;51.504;5.316;2022-12-05T13:54:40;4.40;99.90
32522;DHT22;18963;51.504;5.316;2022-12-05T13:57:13;4.40;99.90
32522;DHT22;18963;51.504;5.316;2022-12-05T14:00:00;4.40;99.90
32522;DHT22;18963;51.504;5.316;2022-12-05T14:07:42;4.50;99.90
32522;DHT22;18963;51.504;5.316;2022-12-05T14:10:10;4.60;99.90
32522;DHT22;18963;51.504;5.316;2022-12-05T14:15:27;4.60;99.90
32522;DHT22;18963;51.504;5.316;2022-12-05T14:17:58;4.70;99.90
32522;DHT22;18963;51.504;5.316;2022-12-05T14:33:33;4.70;99.90
32522;DHT22;18963;51.504;5.316;2022-12-05T14:36:03;4.70;99.90
32522;DHT22;18963;51.504;5.316;2022-12-05T14:38:31;4.70;99.90
32522;DHT22;18963;51.504;5.316;2022-12-05T14:41:10;4.70;99.90
32522;DHT22;18963;51.504;5.316;2022-12-05T14:43:36;4.70;99.90
32522;DHT22;18963;51.504;5.316;2022-12-05T14:46:05;4.70;99.90
32522;DHT22;18963;51.504;5.316;2022-12-05T14:48:32;4.60;99.90
32522;DHT22;18963;51.504;5.316;2022-12-05T14:50:59;4.70;99.90
32522;DHT22;18963;51.504;5.316;2022-12-05T14:53:26;4.70;99.90
32522;DHT22;18963;51.504;5.316;2022-12-05T14:56:13;4.70;99.90
32522;DHT22;18963;51.504;5.316;2022-12-05T15:01:20;4.70;99.90
32522;DHT22;18963;51.504;5.316;2022-12-05T15:03:56;4.70;99.90
32522;DHT22;18963;51.504;5.316;2022-12-05T15:06:23;4.60;99.90
32522;DHT22;18963;51.504;5.316;2022-12-05T15:08:50;4.60;99.90
32522;DHT22;18963;51.504;5.316;2022-12-05T15:11:18;4.60;99.90
32522;DHT22;18963;51.504;5.316;2022-12-05T15:16:37;4.60;99.90
32522;DHT22;18963;51.504;5.316;2022-12-05T15:19:04;4.60;99.90
32522;DHT22;18963;51.504;5.316;2022-12-05T15:24:11;4.60;99.90
32522;DHT22;18963;51.504;5.316;2022-12-05T15:29:06;4.60;99.90
32522;DHT22;18963;51.504;5.316;2022-12-05T15:31:37;4.70;99.90
32522;DHT22;18963;51.504;5.316;2022-12-05T15:34:15;4.60;99.90
32522;DHT22;18963;51.504;5.316;2022-12-05T15:36:43;4.60;99.90
32522;DHT22;18963;51.504;5.316;2022-12-05T15:39:17;4.60;99.90
32522;DHT22;18963;51.504;5.316;2022-12-05T15:41:44;4.60;99.90
32522;DHT22;18963;51.504;5.316;2022-12-05T15:44:09;4.60;99.90
32522;DHT22;18963;51.504;5.316;2022-12-05T15:46:35;4.60;99.90
32522;DHT22;18963;51.504;5.316;2022-12-05T15:49:01;4.60;99.90
32522;DHT22;18963;51.504;5.316;2022-12-05T15:51:39;4.60;99.90
32522;DHT22;18963;51.504;5.316;2022-12-05T15:54:13;4.60;99.90
32522;DHT22;18963;51.504;5.316;2022-12-05T15:56:41;4.60;99.90
32522;DHT22;18963;51.504;5.316;2022-12-05T15:59:15;4.60;99.90
32522;DHT22;18963;51.504;5.316;2022-12-05T16:01:45;4.60;99.90
32522;DHT22;18963;51.504;5.316;2022-12-05T16:06:47;4.60;99.90
32522;DHT22;18963;51.504;5.316;2022-12-05T16:09:14;4.60;99.90
32522;DHT22;18963;51.504;5.316;2022-12-05T16:11:53;4.60;99.90
32522;DHT22;18963;51.504;5.316;2022-12-05T16:14:20;4.60;99.90
32522;DHT22;18963;51.504;5.316;2022-12-05T16:16:46;4.60;99.90
32522;DHT22;18963;51.504;5.316;2022-12-05T16:19:13;4.60;99.90
32522;DHT22;18963;51.504;5.316;2022-12-05T16:21:46;4.60;99.90
32522;DHT22;18963;51.504;5.316;2022-12-05T16:24:26;4.60;99.90
32522;DHT22;18963;51.504;5.316;2022-12-05T16:27:10;4.60;99.90
32522;DHT22;18963;51.504;5.316;2022-12-05T16:29:36;4.60;99.90
32522;DHT22;18963;51.504;5.316;2022-12-05T16:32:03;4.60;99.90
32522;DHT22;18963;51.504;5.316;2022-12-05T16:34:30;4.60;99.90
32522;DHT22;18963;51.504;5.316;2022-12-05T16:36:56;4.60;99.90
32522;DHT22;18963;51.504;5.316;2022-12-05T16:39:23;4.60;99.90
32522;DHT22;18963;51.504;5.316;2022-12-05T16:41:49;4.60;99.90
32522;DHT22;18963;51.504;5.316;2022-12-05T16:47:06;4.60;99.90
32522;DHT22;18963;51.504;5.316;2022-12-05T16:49:42;4.60;99.90
32522;DHT22;18963;51.504;5.316;2022-12-05T16:54:34;4.60;99.90
32522;DHT22;18963;51.504;5.316;2022-12-05T16:56:59;4.60;99.90
32522;DHT22;18963;51.504;5.316;2022-12-05T16:59:29;4.70;99.90
32522;DHT22;18963;51.504;5.316;2022-12-05T17:01:56;4.60;99.90
32522;DHT22;18963;51.504;5.316;2022-12-05T17:04:21;4.70;99.90
32522;DHT22;18963;51.504;5.316;2022-12-05T17:06:47;4.60;99.90
32522;DHT22;18963;51.504;5.316;2022-12-05T17:09:12;4.70;99.90
32522;DHT22;18963;51.504;5.316;2022-12-05T17:11:38;4.70;99.90
32522;DHT22;18963;51.504;5.316;2022-12-05T17:14:05;4.70;99.90
32522;DHT22;18963;51.504;5.316;2022-12-05T17:16:31;4.70;99.90
32522;DHT22;18963;51.504;5.316;2022-12-05T17:18:56;4.70;99.90
32522;DHT22;18963;51.504;5.316;2022-12-05T17:21:23;4.70;99.90
32522;DHT22;18963;51.504;5.316;2022-12-05T17:23:49;4.70;99.90
32522;DHT22;18963;51.504;5.316;2022-12-05T17:26:19;4.70;99.90
32522;DHT22;18963;51.504;5.316;2022-12-05T17:28:45;4.70;99.90
32522;DHT22;18963;51.504;5.316;2022-12-05T17:31:15;4.70;99.90
32522;DHT22;18963;51.504;5.316;2022-12-05T17:33:41;4.80;99.90
32522;DHT22;18963;51.504;5.316;2022-12-05T17:36:07;4.80;99.90
32522;DHT22;18963;51.504;5.316;2022-12-05T17:38:33;4.80;99.90
32522;DHT22;18963;51.504;5.316;2022-12-05T17:40:58;4.80;99.90
32522;DHT22;18963;51.504;5.316;2022-12-05T17:43:24;4.80;99.90
32522;DHT22;18963;51.504;5.316;2022-12-05T17:45:49;4.80;99.90
32522;DHT22;18963;51.504;5.316;2022-12-05T17:48:15;4.80;99.90
32522;DHT22;18963;51.504;5.316;2022-12-05T17:50:40;4.80;99.90
32522;DHT22;18963;51.504;5.316;2022-12-05T17:53:07;4.80;99.90
32522;DHT22;18963;51.504;5.316;2022-12-05T17:55:36;4.80;99.90
32522;DHT22;18963;51.504;5.316;2022-12-05T17:58:02;4.80;99.90
32522;DHT22;18963;51.504;5.316;2022-12-05T18:00:27;4.90;99.90
32522;DHT22;18963;51.504;5.316;2022-12-05T18:02:53;4.90;99.90
32522;DHT22;18963;51.504;5.316;2022-12-05T18:05:20;4.90;99.90
32522;DHT22;18963;51.504;5.316;2022-12-05T18:07:46;4.90;99.90
32522;DHT22;18963;51.504;5.316;2022-12-05T18:10:12;4.90;99.90
32522;DHT22;18963;51.504;5.316;2022-12-05T18:12:38;4.90;99.90
32522;DHT22;18963;51.504;5.316;2022-12-05T18:15:04;4.90;99.90
32522;DHT22;18963;51.504;5.316;2022-12-05T18:17:30;4.90;99.90
32522;DHT22;18963;51.504;5.316;2022-12-05T18:19:55;4.90;99.90